Time;durP1;ratioP1;P1;durP2;ratioP2;P2;SDS_P1;SDS_P2;PMS_P1;PMS_P2;Temp;Humidity;BMP_temperature;BMP_pressure;BME280_temperature;BME280_humidity;BME280_pressure;Samples;Min_cycle;Max_cycle;Signal;HPM_P1;HPM_P2
2023/08/01 00:01:56;;;;;;;1.48;0.70;;;;;;;16.49;100.00;99554.06;6294725;28;20052;-79
2023/08/01 00:04:57;;;;;;;0.60;0.60;;;;;;;16.46;100.00;99556.16;6303215;28;20051;-79
2023/08/01 00:07:58;;;;;;;0.73;0.60;;;;;;;16.35;100.00;99551.91;6297365;28;20052;-79
2023/08/01 00:11:00;;;;;;;1.00;0.82;;;;;;;16.39;100.00;99539.16;6294337;28;20053;-79
2023/08/01 00:14:02;;;;;;;1.88;0.85;;;;;;;16.36;100.00;99539.47;6302584;28;20048;-79
2023/08/01 00:17:04;;;;;;;1.60;1.00;;;;;;;16.35;100.00;99541.31;6302859;28;20045;-79
2023/08/01 00:20:07;;;;;;;2.50;0.90;;;;;;;16.33;100.00;99537.13;6302911;28;20360;-79
2023/08/01 00:23:09;;;;;;;4.25;1.08;;;;;;;16.33;100.00;99527.34;6302375;28;20071;-79
2023/08/01 00:26:10;;;;;;;3.03;0.75;;;;;;;16.33;100.00;99516.72;6302897;28;20056;-79
2023/08/01 00:29:13;;;;;;;1.08;0.75;;;;;;;16.34;100.00;99518.41;6302361;28;20459;-79
2023/08/01 00:32:14;;;;;;;1.35;0.80;;;;;;;16.34;100.00;99507.78;6302592;28;20052;-80
2023/08/01 00:35:16;;;;;;;2.92;0.60;;;;;;;16.33;100.00;99505.28;6302414;28;20055;-80
2023/08/01 00:38:17;;;;;;;0.80;0.57;;;;;;;16.32;100.00;99491.22;6302362;28;20432;-80
2023/08/01 00:41:19;;;;;;;1.05;0.65;;;;;;;16.33;100.00;99497.34;6302262;28;20056;-81
2023/08/01 00:44:22;;;;;;;0.95;0.65;;;;;;;16.33;100.00;99492.03;6302234;28;20052;-80
2023/08/01 00:47:23;;;;;;;0.88;0.63;;;;;;;16.33;100.00;99494.69;6302280;28;20048;-80
2023/08/01 00:50:25;;;;;;;1.00;0.80;;;;;;;16.31;100.00;99488.72;6302410;28;20052;-78
2023/08/01 00:53:27;;;;;;;4.57;1.02;;;;;;;16.32;100.00;99493.88;6289053;28;20056;-80
2023/08/01 00:56:28;;;;;;;1.02;0.90;;;;;;;16.30;100.00;99490.50;6301889;28;20053;-80
2023/08/01 00:59:31;;;;;;;8.77;1.15;;;;;;;16.30;100.00;99493.16;6302096;28;20060;-80
2023/08/01 01:02:33;;;;;;;1.40;0.77;;;;;;;16.32;100.00;99485.91;6301757;28;20272;-80
2023/08/01 01:05:39;;;;;;;1.58;0.98;;;;;;;16.31;100.00;99486.06;6301602;28;20052;-80
2023/08/01 01:08:41;;;;;;;1.02;0.70;;;;;;;16.32;100.00;99475.31;6301658;28;20045;-81
2023/08/01 01:11:43;;;;;;;0.85;0.80;;;;;;;16.34;100.00;99472.50;6301569;28;20060;-80
2023/08/01 01:14:45;;;;;;;1.45;0.80;;;;;;;16.29;100.00;99466.81;6301337;28;20048;-80
2023/08/01 01:17:47;;;;;;;1.25;0.80;;;;;;;16.31;100.00;99463.03;6301602;28;20041;-80
2023/08/01 01:20:50;;;;;;;0.95;0.88;;;;;;;16.35;100.00;99463.53;6301456;28;20052;-80
2023/08/01 01:23:52;;;;;;;1.83;1.38;;;;;;;16.35;100.00;99453.81;6301193;28;20055;-80
2023/08/01 01:26:55;;;;;;;1.80;1.33;;;;;;;16.37;100.00;99451.00;6301151;28;20344;-80
2023/08/01 01:29:58;;;;;;;1.73;1.25;;;;;;;16.36;100.00;99438.72;6301516;28;20075;-81
2023/08/01 01:32:59;;;;;;;2.13;1.40;;;;;;;16.35;100.00;99440.53;6300912;28;20072;-81
2023/08/01 01:36:02;;;;;;;2.33;1.52;;;;;;;16.32;100.00;99432.06;6301013;28;20044;-81
2023/08/01 01:39:04;;;;;;;2.22;1.70;;;;;;;16.33;100.00;99436.38;6290147;28;20076;-81
2023/08/01 01:42:06;;;;;;;2.00;1.40;;;;;;;16.36;100.00;99422.81;6275929;28;20056;-81
2023/08/01 01:45:08;;;;;;;2.95;1.85;;;;;;;16.35;100.00;99415.81;6276253;28;20049;-81
2023/08/01 01:48:09;;;;;;;2.83;1.50;;;;;;;16.34;100.00;99412.34;6292419;28;20051;-81
2023/08/01 01:51:12;;;;;;;8.80;1.70;;;;;;;16.35;100.00;99415.81;6300855;28;20048;-80
2023/08/01 01:54:13;;;;;;;3.25;1.83;;;;;;;16.34;100.00;99422.94;6300450;28;20055;-81
2023/08/01 01:57:15;;;;;;;2.67;1.70;;;;;;;16.37;100.00;99417.34;6300734;28;20052;-80
2023/08/01 02:00:16;;;;;;;2.50;1.58;;;;;;;16.37;100.00;99417.34;6300506;28;20048;-80
2023/08/01 02:03:17;;;;;;;2.63;2.08;;;;;;;16.36;100.00;99402.44;6286852;28;20049;-80
2023/08/01 02:06:20;;;;;;;3.70;2.58;;;;;;;16.36;100.00;99389.19;6300634;28;20053;-79
2023/08/01 02:09:22;;;;;;;2.72;2.03;;;;;;;16.33;100.00;99400.06;6300405;28;20051;-80
2023/08/01 02:12:23;;;;;;;3.78;2.20;;;;;;;16.39;100.00;99409.22;6300097;28;20371;-81
2023/08/01 02:15:24;;;;;;;4.75;2.67;;;;;;;16.35;100.00;99407.88;6291178;28;20079;-81
2023/08/01 02:18:26;;;;;;;3.50;2.40;;;;;;;16.35;100.00;99394.63;6300429;28;20041;-80
2023/08/01 02:21:28;;;;;;;4.25;2.60;;;;;;;16.34;100.00;99383.19;6300240;28;20045;-81
2023/08/01 02:24:30;;;;;;;5.63;2.28;;;;;;;16.37;100.00;99385.53;6300190;28;20048;-81
2023/08/01 02:27:31;;;;;;;7.40;2.25;;;;;;;16.35;100.00;99379.56;6300297;28;20047;-80
2023/08/01 02:30:33;;;;;;;3.67;2.42;;;;;;;16.37;100.00;99371.44;6300437;28;20060;-80
2023/08/01 02:33:34;;;;;;;3.83;2.53;;;;;;;16.35;100.00;99366.31;6299878;28;20052;-81
2023/08/01 02:36:37;;;;;;;3.47;2.40;;;;;;;16.33;100.00;99362.97;6299667;28;20055;-81
2023/08/01 02:39:39;;;;;;;4.82;2.70;;;;;;;16.33;100.00;99362.97;6300214;28;20048;-81
2023/08/01 02:42:40;;;;;;;4.15;2.63;;;;;;;16.29;100.00;99350.16;6299881;28;20079;-81
2023/08/01 02:45:42;;;;;;;6.15;2.28;;;;;;;16.27;100.00;99352.97;6299839;28;20052;-81
2023/08/01 02:48:44;;;;;;;2.72;1.90;;;;;;;16.24;100.00;99347.97;6300116;28;20055;-80
2023/08/01 02:51:46;;;;;;;2.97;1.98;;;;;;;16.24;100.00;99353.28;6303390;28;20052;-81
2023/08/01 02:54:48;;;;;;;1.52;1.35;;;;;;;16.20;100.00;99331.53;6300203;28;20056;-80
2023/08/01 02:57:49;;;;;;;3.10;1.60;;;;;;;16.16;100.00;99329.34;6293969;28;20040;-80
2023/08/01 03:00:50;;;;;;;1.90;1.58;;;;;;;16.16;100.00;99329.34;6304999;28;20048;-80
2023/08/01 03:03:52;;;;;;;3.05;1.83;;;;;;;16.14;100.00;99318.91;6304376;28;20455;-80
2023/08/01 03:06:54;;;;;;;2.25;1.23;;;;;;;16.14;100.00;99326.03;6304609;28;20049;-81
2023/08/01 03:09:56;;;;;;;1.65;1.20;;;;;;;16.16;100.00;99327.50;6304564;28;20049;-80
2023/08/01 03:12:57;;;;;;;2.20;1.20;;;;;;;16.14;100.00;99323.38;6303939;28;20049;-80
2023/08/01 03:15:59;;;;;;;2.00;1.30;;;;;;;16.13;100.00;99319.06;6304520;28;20052;-80
2023/08/01 03:19:04;;;;;;;3.55;1.38;;;;;;;16.17;100.00;99313.31;6304154;28;20045;-80
2023/08/01 03:22:07;;;;;;;2.42;1.70;;;;;;;16.12;100.00;99320.84;6304145;28;20420;-80
2023/08/01 03:25:09;;;;;;;1.63;1.27;;;;;;;16.08;100.00;99316.00;6303864;28;20162;-80
2023/08/01 03:28:10;;;;;;;2.70;1.25;;;;;;;16.08;100.00;99322.16;6304242;28;20050;-80
2023/08/01 03:31:12;;;;;;;2.58;1.45;;;;;;;16.07;100.00;99323.13;6303966;28;20048;-80
2023/08/01 03:34:13;;;;;;;1.30;0.90;;;;;;;16.05;100.00;99335.72;6303731;28;20490;-80
2023/08/01 03:37:17;;;;;;;2.50;1.58;;;;;;;16.03;100.00;99342.13;6303730;28;20075;-79
2023/08/01 03:40:19;;;;;;;2.28;1.35;;;;;;;15.95;100.00;99335.78;6291000;28;20044;-80
2023/08/01 03:43:23;;;;;;;2.08;1.50;;;;;;;15.96;100.00;99348.03;6296908;28;20347;-80
2023/08/01 03:46:24;;;;;;;1.85;1.33;;;;;;;15.96;100.00;99344.56;6303938;28;20063;-80
2023/08/01 03:49:26;;;;;;;2.95;1.20;;;;;;;15.88;100.00;99345.31;6291634;28;20052;-80
2023/08/01 03:52:29;;;;;;;2.40;1.58;;;;;;;15.92;100.00;99341.38;6297362;28;20066;-80
2023/08/01 03:55:30;;;;;;;3.05;1.50;;;;;;;15.91;100.00;99342.38;6286721;28;20049;-80
2023/08/01 03:58:31;;;;;;;2.10;1.17;;;;;;;15.82;100.00;99337.97;6278400;28;20049;-80
2023/08/01 04:01:33;;;;;;;2.28;1.55;;;;;;;15.82;100.00;99337.13;6277779;28;20052;-80
2023/08/01 04:04:34;;;;;;;1.88;1.25;;;;;;;15.71;100.00;99333.72;6278186;28;20049;-80
2023/08/01 04:07:37;;;;;;;2.22;1.30;;;;;;;15.72;100.00;99337.22;6278471;28;20048;-80
2023/08/01 04:10:38;;;;;;;1.50;1.10;;;;;;;15.68;100.00;99339.31;6278249;28;20464;-80
2023/08/01 04:13:40;;;;;;;2.28;1.30;;;;;;;15.72;100.00;99337.22;6277859;28;20429;-80
2023/08/01 04:16:41;;;;;;;1.48;1.10;;;;;;;15.68;100.00;99347.25;6278021;28;20356;-81
2023/08/01 04:19:43;;;;;;;1.55;1.38;;;;;;;15.64;100.00;99343.25;6277993;28;20330;-80
2023/08/01 04:22:45;;;;;;;2.80;1.52;;;;;;;15.65;100.00;99344.91;6277756;28;20468;-80
2023/08/01 04:25:47;;;;;;;1.02;0.95;;;;;;;15.63;100.00;99341.56;6277794;28;20057;-80
2023/08/01 04:28:48;;;;;;;3.08;1.40;;;;;;;15.77;100.00;99342.06;6277979;28;20047;-80
2023/08/01 04:31:49;;;;;;;3.20;1.70;;;;;;;15.79;100.00;99340.91;6277597;28;20057;-80
2023/08/01 04:34:51;;;;;;;2.75;1.60;;;;;;;15.68;100.00;99333.19;6291710;28;20048;-80
2023/08/01 04:37:54;;;;;;;2.97;1.13;;;;;;;15.68;100.00;99323.44;6302373;28;20041;-80
2023/08/01 04:40:55;;;;;;;2.40;1.20;;;;;;;15.63;100.00;99325.66;6302626;28;20048;-81
2023/08/01 04:43:56;;;;;;;11.98;1.30;;;;;;;15.63;100.00;99327.47;6301908;28;20361;-80
2023/08/01 04:46:58;;;;;;;1.58;1.10;;;;;;;15.59;100.00;99321.63;6302273;28;20463;-80
2023/08/01 04:49:59;;;;;;;3.17;1.38;;;;;;;15.62;100.00;99325.78;6302177;28;20344;-80
2023/08/01 04:53:02;;;;;;;2.88;1.50;;;;;;;15.55;100.00;99330.84;6302007;28;20060;-80
2023/08/01 04:56:04;;;;;;;2.95;1.60;;;;;;;15.63;100.00;99330.13;6302165;28;20055;-80
2023/08/01 04:59:06;;;;;;;3.15;1.70;;;;;;;15.63;100.00;99320.38;6301852;28;20048;-80
2023/08/01 05:02:07;;;;;;;8.13;1.63;;;;;;;15.55;100.00;99330.84;6301952;28;20075;-80
2023/08/01 05:05:09;;;;;;;2.33;1.52;;;;;;;15.51;100.00;99323.38;6301547;28;20060;-80
2023/08/01 05:08:11;;;;;;;2.58;1.73;;;;;;;15.52;100.00;99330.31;6301889;28;20044;-80
2023/08/01 05:11:13;;;;;;;2.97;1.80;;;;;;;15.52;100.00;99338.25;6301441;28;20044;-79
2023/08/01 05:14:14;;;;;;;3.53;2.13;;;;;;;15.52;100.00;99333.78;6300391;28;20060;-80
2023/08/01 05:17:16;;;;;;;4.03;2.35;;;;;;;15.58;100.00;99343.81;6301509;28;20063;-80
2023/08/01 05:20:18;;;;;;;4.55;2.53;;;;;;;15.51;100.00;99339.25;6301592;28;20052;-80
2023/08/01 05:23:21;;;;;;;3.67;2.58;;;;;;;15.58;100.00;99338.53;6300987;28;20052;-80
2023/08/01 05:26:22;;;;;;;4.50;2.63;;;;;;;15.57;100.00;99342.13;6301571;28;20053;-80
2023/08/01 05:29:23;;;;;;;4.30;2.60;;;;;;;15.50;100.00;99335.78;6301213;28;20064;-80
2023/08/01 05:32:25;;;;;;;5.28;2.85;;;;;;;15.58;100.00;99338.53;6292351;28;20052;-80
2023/08/01 05:35:26;;;;;;;5.50;3.25;;;;;;;15.57;100.00;99334.19;6287102;28;20049;-80
2023/08/01 05:38:29;;;;;;;4.63;3.20;;;;;;;15.63;100.00;99330.13;6292476;28;20051;-79
2023/08/01 05:41:30;;;;;;;5.93;3.30;;;;;;;15.59;100.00;99334.06;6301034;28;20051;-80
2023/08/01 05:44:32;;;;;;;6.55;3.70;;;;;;;15.61;100.00;99335.56;6300661;28;20045;-79
2023/08/01 05:47:34;;;;;;;6.47;3.85;;;;;;;15.62;100.00;99334.56;6301029;28;20454;-80
2023/08/01 05:50:35;;;;;;;12.80;4.00;;;;;;;15.55;100.00;99336.16;6300104;28;20045;-81
2023/08/01 05:53:38;;;;;;;11.30;4.70;;;;;;;15.59;100.00;99337.53;6287441;28;20044;-80
2023/08/01 05:56:39;;;;;;;9.55;5.38;;;;;;;15.65;100.00;99347.56;6300589;28;20076;-81
2023/08/01 05:59:41;;;;;;;6.22;4.25;;;;;;;15.71;100.00;99351.41;6300528;28;20045;-80
2023/08/01 06:02:42;;;;;;;8.05;4.25;;;;;;;15.77;100.00;99350.00;6292889;28;20045;-80
2023/08/01 06:05:44;;;;;;;8.77;4.35;;;;;;;15.68;100.00;99344.63;6281408;28;20509;-80
2023/08/01 06:08:46;;;;;;;13.82;4.40;;;;;;;15.79;100.00;99348.84;6287249;28;20052;-79
2023/08/01 06:11:48;;;;;;;8.50;3.58;;;;;;;15.78;100.00;99349.00;6284542;28;20052;-79
2023/08/01 06:14:49;;;;;;;10.10;4.63;;;;;;;15.79;100.00;99351.50;6289472;28;20056;-79
2023/08/01 06:17:51;;;;;;;7.47;4.10;;;;;;;15.80;100.00;99357.63;6293976;28;20055;-80
2023/08/01 06:20:52;;;;;;;12.07;4.88;;;;;;;15.83;100.00;99354.69;6286124;28;20060;-80
2023/08/01 06:23:55;;;;;;;11.45;5.15;;;;;;;15.81;100.00;99362.81;6290815;28;20055;-81
2023/08/01 06:26:56;;;;;;;14.43;5.38;;;;;;;15.85;100.00;99360.66;6289619;28;20056;-84
2023/08/01 06:29:57;;;;;;;11.07;5.13;;;;;;;15.83;100.00;99360.00;6300147;28;20044;-79
2023/08/01 06:32:59;;;;;;;7.50;4.25;;;;;;;15.90;100.00;99364.56;6299987;28;20080;-78
2023/08/01 06:36:00;;;;;;;15.65;5.47;;;;;;;15.91;100.00;99362.72;6280065;28;20056;-80
2023/08/01 06:39:04;;;;;;;9.70;4.93;;;;;;;15.92;100.00;99365.22;6290255;28;20048;-81
2023/08/01 06:42:06;;;;;;;15.27;4.78;;;;;;;15.97;100.00;99360.31;6286659;28;20139;-78
2023/08/01 06:45:07;;;;;;;8.13;4.72;;;;;;;15.99;100.00;99368.13;6290741;28;20052;-80
2023/08/01 06:48:09;;;;;;;12.68;5.05;;;;;;;15.96;100.00;99374.53;6279514;28;20440;-78
2023/08/01 06:51:11;;;;;;;8.40;4.68;;;;;;;16.03;100.00;99368.63;6274870;28;20057;-78
2023/08/01 06:54:13;;;;;;;8.60;4.95;;;;;;;16.00;100.00;99376.91;6259805;28;20056;-81
2023/08/01 06:57:15;;;;;;;9.48;5.07;;;;;;;15.98;100.00;99374.38;6250257;28;20054;-79
2023/08/01 07:00:17;;;;;;;7.10;4.63;;;;;;;15.95;100.00;99374.69;6276842;28;20394;-77
2023/08/01 07:03:18;;;;;;;14.73;5.25;;;;;;;16.00;100.00;99375.09;6291462;28;20049;-76
2023/08/01 07:06:20;;;;;;;6.85;4.28;;;;;;;16.04;100.00;99379.09;6263883;28;20064;-78
2023/08/01 07:09:22;;;;;;;9.30;5.22;;;;;;;16.11;100.00;99382.81;6288014;28;20425;-79
2023/08/01 07:12:24;;;;;;;7.97;4.30;;;;;;;16.05;100.00;99385.22;6290796;28;20165;-79
2023/08/01 07:15:25;;;;;;;11.43;5.15;;;;;;;16.07;100.00;99386.72;6286062;28;20057;-80
2023/08/01 07:18:27;;;;;;;9.15;4.80;;;;;;;16.12;100.00;99376.50;6270486;28;20340;-86
2023/08/01 07:21:29;;;;;;;10.10;5.22;;;;;;;16.22;100.00;99377.28;6269371;28;20045;-80
2023/08/01 07:24:32;;;;;;;6.75;4.03;;;;;;;16.26;100.00;99380.47;6276917;28;20060;-81
2023/08/01 07:27:33;;;;;;;10.40;5.10;;;;;;;16.35;100.00;99390.16;6284880;28;20044;-80
2023/08/01 07:30:35;;;;;;;16.05;5.43;;;;;;;16.40;100.00;99384.41;6290937;28;20425;-81
2023/08/01 07:33:36;;;;;;;11.35;4.30;;;;;;;16.43;100.00;99389.38;6290270;28;20575;-79
2023/08/01 07:36:38;;;;;;;12.18;5.22;;;;;;;16.47;100.00;99385.44;6274466;28;20425;-86
2023/08/01 07:39:40;;;;;;;12.10;4.40;;;;;;;16.49;100.00;99380.84;6278819;28;20357;-79
2023/08/01 07:42:42;;;;;;;7.43;4.22;;;;;;;16.52;100.00;99382.34;6286988;28;20072;-77
2023/08/01 07:45:43;;;;;;;8.75;4.20;;;;;;;16.55;100.00;99374.09;6299351;28;20053;-79
2023/08/01 07:48:44;;;;;;;7.82;3.13;;;;;;;16.59;100.00;99383.41;6303768;28;20063;-79
2023/08/01 07:51:46;;;;;;;8.43;3.10;;;;;;;16.58;100.00;99382.56;6285228;28;20056;-81
2023/08/01 07:54:48;;;;;;;6.43;3.38;;;;;;;16.63;100.00;99382.09;6278044;28;20053;-76
2023/08/01 07:57:50;;;;;;;3.45;2.40;;;;;;;16.56;100.00;99387.19;6287268;28;20063;-78
2023/08/01 08:00:51;;;;;;;7.18;2.90;;;;;;;16.60;100.00;99393.84;6292149;28;20041;-80
2023/08/01 08:03:53;;;;;;;7.93;3.42;;;;;;;16.57;100.00;99395.97;6294516;28;20056;-81
2023/08/01 08:06:54;;;;;;;5.97;3.20;;;;;;;16.56;100.00;99389.00;6300973;28;20045;-80
2023/08/01 08:09:57;;;;;;;8.65;3.17;;;;;;;16.49;100.00;99386.97;6303256;28;20049;-79
2023/08/01 08:12:58;;;;;;;8.23;3.03;;;;;;;16.52;100.00;99391.13;6302750;28;20060;-80
2023/08/01 08:16:00;;;;;;;6.22;2.92;;;;;;;16.56;100.00;99387.19;6295242;28;20056;-80
2023/08/01 08:19:01;;;;;;;10.77;3.55;;;;;;;16.54;100.00;99404.25;6294309;28;20053;-82
2023/08/01 08:22:03;;;;;;;7.07;2.90;;;;;;;16.56;100.00;99403.09;6302791;28;20055;-82
2023/08/01 08:25:06;;;;;;;4.78;2.70;;;;;;;16.56;100.00;99403.09;6291668;28;20049;-77
2023/08/01 08:28:08;;;;;;;5.85;2.60;;;;;;;16.70;100.00;99402.53;6277775;28;20436;-81
2023/08/01 08:31:10;;;;;;;4.30;2.60;;;;;;;16.74;100.00;99389.84;6277569;28;20049;-79
2023/08/01 08:34:11;;;;;;;11.05;2.30;;;;;;;16.83;100.00;99398.69;6277581;28;20060;-78
2023/08/01 08:37:12;;;;;;;5.57;2.63;;;;;;;16.94;100.00;99396.63;6277543;28;20060;-80
2023/08/01 08:40:15;;;;;;;4.32;1.98;;;;;;;17.02;100.00;99393.19;6277676;28;20049;-79
2023/08/01 08:43:17;;;;;;;4.95;2.30;;;;;;;17.07;100.00;99382.91;6277436;28;20053;-80
2023/08/01 08:46:22;;;;;;;5.10;1.95;;;;;;;17.11;100.00;99392.25;6292723;28;20055;-79
2023/08/01 08:49:26;;;;;;;7.30;2.13;;;;;;;17.10;100.00;99395.88;6282989;28;20084;-81
2023/08/01 08:52:28;;;;;;;4.78;2.10;;;;;;;17.19;100.00;99389.63;6293024;28;20080;-80
2023/08/01 08:55:33;;;;;;;4.65;1.77;;;;;;;17.36;100.00;99403.84;6301838;28;20055;-80
2023/08/01 08:58:34;;;;;;;9.55;2.03;;;;;;;17.33;100.00;99390.03;6301719;28;20059;-79
2023/08/01 09:01:35;;;;;;;4.43;1.95;;;;;;;17.33;100.00;99398.84;6301655;28;20397;-80
2023/08/01 09:04:37;;;;;;;3.03;1.70;;;;;;;17.30;100.00;99400.97;6301385;28;20055;-79
2023/08/01 09:07:42;;;;;;;5.93;1.88;;;;;;;17.20;100.00;99414.34;6301813;28;20049;-77
2023/08/01 09:10:45;;;;;;;3.58;1.65;;;;;;;17.19;100.00;99410.03;6301592;28;20076;-81
2023/08/01 09:13:48;;;;;;;8.85;2.58;;;;;;;17.18;100.00;99400.41;6301133;28;20318;-79
2023/08/01 09:16:49;;;;;;;6.50;2.58;;;;;;;17.25;100.00;99401.44;6301191;28;20095;-79
2023/08/01 09:19:56;;;;;;;6.65;2.45;;;;;;;17.36;100.00;99405.66;6301512;28;20051;-79
2023/08/01 09:22:57;;;;;;;4.13;1.58;;;;;;;17.45;100.00;99404.72;6301051;28;20142;-79
2023/08/01 09:26:00;;;;;;;7.03;2.45;;;;;;;17.45;100.00;99400.22;6282330;28;20067;-80
2023/08/01 09:29:01;;;;;;;7.05;2.22;;;;;;;17.47;100.00;99408.84;6276490;28;20041;-79
2023/08/01 09:32:13;;;;;;;4.93;1.70;;;;;;;17.52;100.00;99391.63;6276163;28;20049;-79
2023/08/01 09:35:14;;;;;;;6.20;1.20;;;;;;;17.58;100.00;99398.97;6275991;28;20087;-79
2023/08/01 09:38:16;;;;;;;11.10;1.67;;;;;;;17.76;100.00;99394.41;6276046;28;20349;-80
2023/08/01 09:41:20;;;;;;;7.40;1.77;;;;;;;17.85;100.00;99404.06;6276276;28;20049;-82
2023/08/01 09:44:21;;;;;;;3.60;1.10;;;;;;;17.80;100.00;99408.19;6292093;28;20076;-83
2023/08/01 09:47:23;;;;;;;6.43;1.25;;;;;;;17.83;100.00;99410.53;6286730;28;20056;-77
2023/08/01 09:50:25;;;;;;;3.50;0.80;;;;;;;17.81;100.00;99407.22;6300723;28;20048;-79
2023/08/01 09:53:26;;;;;;;1.25;0.90;;;;;;;17.74;100.00;99407.00;6300232;28;20071;-80
2023/08/01 09:56:29;;;;;;;3.63;1.33;;;;;;;17.80;100.00;99424.13;6300429;28;20060;-80
2023/08/01 09:59:31;;;;;;;2.55;0.80;;;;;;;17.80;100.00;99402.88;6298778;28;20102;-78
2023/08/01 10:02:34;;;;;;;1.38;0.90;;;;;;;17.90;100.00;99403.59;6286122;28;20056;-80
2023/08/01 10:05:39;;;;;;;0.73;0.60;;;;;;;17.93;100.00;99409.41;6275352;28;20353;-79
2023/08/01 10:08:41;;;;;;;0.85;0.60;;;;;;;17.98;100.00;99392.97;6275380;28;20116;-78
2023/08/01 10:11:45;;;;;;;3.00;1.55;;;;;;;17.98;100.00;99403.59;6275615;28;20045;-76
2023/08/01 10:14:46;;;;;;;3.42;0.70;;;;;;;17.97;100.00;99397.44;6275264;28;20045;-76
2023/08/01 10:17:48;;;;;;;1.45;0.52;;;;;;;18.03;100.00;99392.47;6275399;28;20361;-75
2023/08/01 10:20:50;;;;;;;0.90;0.68;;;;;;;18.10;100.00;99390.84;6275212;28;20322;-75
2023/08/01 10:23:52;;;;;;;4.13;1.00;;;;;;;17.99;100.00;99397.31;6275861;28;20067;-76
2023/08/01 10:26:55;;;;;;;1.33;0.75;;;;;;;18.00;100.00;99396.31;6300327;28;20044;-75
2023/08/01 10:30:00;;;;;;;2.95;1.23;;;;;;;18.02;100.00;99396.13;6300083;28;20045;-74
2023/08/01 10:33:02;;;;;;;2.65;1.05;;;;;;;18.18;100.00;99389.03;6298451;28;20060;-75
2023/08/01 10:36:13;;;;;;;4.00;0.98;;;;;;;18.34;100.00;99390.03;6289985;28;20049;-75
2023/08/01 10:39:22;;;;;;;4.28;1.10;;;;;;;18.47;100.00;99380.56;6300158;28;20048;-76
2023/08/01 10:42:25;;;;;;;1.00;0.55;;;;;;;18.63;100.00;99382.41;6299893;28;20061;-75
2023/08/01 10:45:28;;;;;;;7.15;0.90;;;;;;;18.79;100.00;99380.75;6299629;28;20125;-75
2023/08/01 10:48:30;;;;;;;2.10;0.90;;;;;;;18.86;100.00;99376.44;6289187;28;20053;-75
2023/08/01 10:51:36;;;;;;;0.88;0.63;;;;;;;18.88;100.00;99377.91;6285345;28;20052;-74
2023/08/01 10:54:38;;;;;;;1.85;0.80;;;;;;;18.81;100.00;99386.75;6299685;28;20055;-74
2023/08/01 10:57:48;;;;;;;2.65;0.80;;;;;;;18.58;100.00;99402.53;6300175;28;20048;-75
2023/08/01 11:00:58;;;;;;;1.95;0.77;;;;;;;17.97;100.00;99437.31;6297032;28;20135;-78
2023/08/01 11:03:59;;;;;;;1.40;0.95;;;;;;;17.24;100.00;99435.13;6288686;28;20356;-76
2023/08/01 11:07:02;;;;;;;2.63;0.93;;;;;;;16.85;100.00;99434.72;6299388;28;20044;-76
2023/08/01 11:10:05;;;;;;;3.35;1.17;;;;;;;16.64;100.00;99437.66;6299686;28;20045;-76
2023/08/01 11:13:12;;;;;;;6.20;1.15;;;;;;;16.64;100.00;99426.22;6303265;28;20109;-75
2023/08/01 11:16:14;;;;;;;2.88;1.20;;;;;;;16.64;100.00;99437.66;6304223;28;20348;-75
2023/08/01 11:19:19;;;;;;;3.22;1.45;;;;;;;16.81;100.00;99429.88;6302938;28;20056;-75
2023/08/01 11:22:21;;;;;;;6.45;1.73;;;;;;;16.96;100.00;99430.97;6279577;28;20107;-75
2023/08/01 11:25:35;;;;;;;4.57;1.52;;;;;;;17.39;100.00;99430.06;6292794;28;20045;-75
2023/08/01 11:28:38;;;;;;;4.30;1.30;;;;;;;17.61;100.00;99420.72;6303957;28;20048;-76
2023/08/01 11:31:40;;;;;;;4.38;1.23;;;;;;;17.77;100.00;99429.78;6303979;28;20455;-76
2023/08/01 11:34:44;;;;;;;1.60;1.10;;;;;;;18.04;100.00;99420.75;6303488;28;20052;-76
2023/08/01 11:37:45;;;;;;;4.13;1.17;;;;;;;18.17;100.00;99415.78;6294432;28;20057;-76
2023/08/01 11:40:49;;;;;;;2.95;1.08;;;;;;;18.22;100.00;99416.97;6278825;28;20344;-75
2023/08/01 11:43:52;;;;;;;1.63;1.13;;;;;;;18.39;100.00;99420.44;6278744;28;20060;-76
2023/08/01 11:46:53;;;;;;;2.58;0.95;;;;;;;18.54;100.00;99430.47;6278815;28;20053;-76
2023/08/01 11:49:54;;;;;;;4.72;1.98;;;;;;;18.58;100.00;99453.91;6276057;28;20056;-76
2023/08/01 11:52:56;;;;;;;2.53;0.90;;;;;;;18.48;100.00;99448.72;6286768;28;20049;-75
2023/08/01 11:55:57;;;;;;;1.42;0.88;;;;;;;18.24;100.00;99472.63;6287139;28;20049;-75
2023/08/01 11:59:00;;;;;;;3.22;1.20;;;;;;;17.90;100.00;99473.53;6284528;28;20057;-76
2023/08/01 12:02:01;;;;;;;3.80;1.40;;;;;;;17.50;100.00;99476.78;6291643;28;20045;-76
2023/08/01 12:05:03;;;;;;;2.72;1.20;;;;;;;17.28;100.00;99477.31;6287352;28;20048;-78
2023/08/01 12:08:12;;;;;;;2.65;1.05;;;;;;;17.07;100.00;99480.31;6294667;28;20107;-77
2023/08/01 12:11:21;;;;;;;3.67;1.08;;;;;;;16.88;100.00;99468.88;6293762;28;20338;-76
2023/08/01 12:14:23;;;;;;;2.58;1.08;;;;;;;16.81;100.00;99470.50;6253178;28;20060;-75
2023/08/01 12:17:25;;;;;;;3.97;1.60;;;;;;;16.84;100.00;99474.66;6253485;28;20060;-75
2023/08/01 12:20:26;;;;;;;3.78;1.52;;;;;;;16.79;100.00;99485.72;6253217;28;20049;-76
2023/08/01 12:23:28;;;;;;;3.35;1.02;;;;;;;16.83;100.00;99487.09;6252474;28;20045;-75
2023/08/01 12:26:29;;;;;;;4.45;1.38;;;;;;;16.84;100.00;99493.22;6290744;28;20055;-75
2023/08/01 12:29:32;;;;;;;5.45;1.40;;;;;;;16.77;100.00;99490.38;6277714;28;20357;-78
2023/08/01 12:32:35;;;;;;;2.05;1.20;;;;;;;16.72;100.00;99493.47;6277499;28;20045;-76
2023/08/01 12:35:40;;;;;;;5.13;1.25;;;;;;;16.73;100.00;99489.81;6280050;28;20053;-83
2023/08/01 12:38:41;;;;;;;3.53;1.10;;;;;;;16.87;100.00;99500.88;6293942;28;20440;-84
2023/08/01 12:41:42;;;;;;;3.25;1.27;;;;;;;16.93;100.00;99501.09;6302466;28;20040;-83
2023/08/01 12:44:45;;;;;;;2.65;0.95;;;;;;;16.77;100.00;99498.31;6302352;28;20052;-84
2023/08/01 12:47:47;;;;;;;4.35;1.00;;;;;;;16.72;100.00;99497.94;6302208;28;20052;-83
2023/08/01 12:50:49;;;;;;;4.68;1.00;;;;;;;16.68;100.00;99502.69;6302431;28;20049;-82
2023/08/01 12:53:50;;;;;;;3.20;1.27;;;;;;;16.71;100.00;99506.84;6301665;28;20110;-82
2023/08/01 12:56:51;;;;;;;2.65;1.25;;;;;;;16.80;100.00;99505.13;6302022;28;20356;-82
2023/08/01 12:59:54;;;;;;;2.65;1.10;;;;;;;16.90;100.00;99506.72;6301920;28;20055;-81
2023/08/01 13:02:55;;;;;;;4.13;1.10;;;;;;;17.03;100.00;99506.31;6297837;28;20049;-80
2023/08/01 13:05:58;;;;;;;3.05;1.25;;;;;;;17.25;100.00;99521.75;6262627;28;20056;-83
2023/08/01 13:08:59;;;;;;;12.60;1.42;;;;;;;17.53;100.00;99510.16;6256615;28;20057;-82
2023/08/01 13:12:01;;;;;;;2.58;1.60;;;;;;;17.46;100.00;99507.31;6286026;28;20106;-84
2023/08/01 13:15:05;;;;;;;3.60;1.50;;;;;;;17.66;100.00;99507.91;6268320;28;20053;-84
2023/08/01 13:18:06;;;;;;;3.10;1.40;;;;;;;17.96;100.00;99499.47;6276715;28;20114;-83
2023/08/01 13:21:08;;;;;;;1.92;1.05;;;;;;;18.11;100.00;99499.69;6276237;28;20049;-82
2023/08/01 13:24:09;;;;;;;1.23;0.80;;;;;;;18.49;100.00;99494.81;6279648;28;20059;-83
2023/08/01 13:27:11;;;;;;;5.50;1.75;;;;;;;18.32;100.00;99493.94;6282465;28;20053;-82
2023/08/01 13:30:14;;;;;;;2.53;1.05;;;;;;;18.21;100.00;99508.38;6276279;28;20068;-81
2023/08/01 13:33:15;;;;;;;1.25;0.60;;;;;;;18.01;100.00;99496.31;6275775;28;20099;-81
2023/08/01 13:36:18;;;;;;;2.78;0.80;;;;;;;17.98;100.00;99517.91;6275323;28;20357;-88
2023/08/01 13:39:19;;;;;;;0.80;0.70;;;;;;;18.04;100.00;99511.13;6276151;28;20056;-81
2023/08/01 13:42:21;;;;;;;2.22;0.70;;;;;;;18.28;100.00;99513.88;6275647;28;20041;-83
2023/08/01 13:45:23;;;;;;;2.05;0.80;;;;;;;18.51;100.00;99522.91;6252930;28;20080;-81
2023/08/01 13:48:25;;;;;;;2.28;0.85;;;;;;;18.83;100.00;99524.00;6251488;28;20060;-81
2023/08/01 13:51:26;;;;;;;1.27;0.90;;;;;;;18.89;100.00;99523.31;6262497;28;20048;-79
2023/08/01 13:54:27;;;;;;;3.15;1.00;;;;;;;18.59;100.00;99529.25;6285887;28;20048;-78
2023/08/01 13:57:29;;;;;;;0.70;0.70;;;;;;;18.29;100.00;99528.00;6291488;28;20057;-80
2023/08/01 14:00:32;;;;;;;0.93;0.70;;;;;;;18.29;100.00;99530.66;6300483;28;20048;-75
2023/08/01 14:03:34;;;;;;;2.20;0.63;;;;;;;18.47;100.00;99531.38;6300071;28;20059;-74
2023/08/01 14:06:35;;;;;;;1.45;0.82;;;;;;;18.54;100.00;99524.41;6293461;28;20041;-76